Time;durP1;ratioP1;P1;durP2;ratioP2;P2;SDS_P1;SDS_P2;PMS_P1;PMS_P2;Temp;Humidity;BMP_temperature;BMP_pressure;BME280_temperature;BME280_humidity;BME280_pressure;Samples;Min_cycle;Max_cycle;Signal;HPM_P1;HPM_P2
2021/12/14 00:00:22;;;;;;;1.10;1.00;;;;;;;;;;4449900;28;20134;-63
2021/12/14 00:02:33;;;;;;;1.10;1.00;;;;;;;;;;4469146;28;20046;-63
2021/12/14 00:04:44;;;;;;;1.10;1.00;;;;;;;;;;4469198;28;20566;-63
2021/12/14 00:06:55;;;;;;;1.92;1.13;;;;;;;;;;4483821;28;20118;-64
2021/12/14 00:09:08;;;;;;;1.42;0.80;;;;;;;;;;4461030;28;20578;-63
2021/12/14 00:14:10;;;;;;;0.68;0.68;;;;;;;;;;4469573;28;20043;-63
2021/12/14 00:16:20;;;;;;;1.02;0.80;;;;;;;;;;4436688;28;20040;-64
2021/12/14 00:18:33;;;;;;;0.90;0.80;;;;;;;;;;4470322;28;20415;-64
2021/12/14 00:20:48;;;;;;;0.98;0.90;;;;;;;;;;4468609;28;20031;-64
2021/12/14 00:25:10;;;;;;;1.08;0.88;;;;;;;;;;4468598;28;20031;-64
2021/12/14 00:27:22;;;;;;;0.90;0.80;;;;;;;;;;4438378;28;20804;-64
2021/12/14 00:29:40;;;;;;;0.77;0.70;;;;;;;;;;4482685;28;20030;-64
2021/12/14 00:31:51;;;;;;;0.65;0.65;;;;;;;;;;4452018;28;20031;-64
2021/12/14 00:34:04;;;;;;;0.70;0.70;;;;;;;;;;4469013;28;20041;-64
2021/12/14 00:36:16;;;;;;;1.20;0.90;;;;;;;;;;4468100;28;20093;-64
2021/12/14 00:38:27;;;;;;;0.60;0.60;;;;;;;;;;4475631;28;20074;-64
2021/12/14 00:40:43;;;;;;;0.73;0.60;;;;;;;;;;4468223;28;20089;-64
2021/12/14 00:42:55;;;;;;;0.70;0.70;;;;;;;;;;4467663;28;20074;-64
2021/12/14 00:45:06;;;;;;;0.60;0.60;;;;;;;;;;4467953;28;20066;-64
2021/12/14 00:47:17;;;;;;;0.80;0.80;;;;;;;;;;4468214;28;20041;-64
2021/12/14 00:49:27;;;;;;;0.93;0.70;;;;;;;;;;4467841;28;20050;-64
2021/12/14 00:51:38;;;;;;;0.73;0.67;;;;;;;;;;4483715;28;20073;-64
2021/12/14 00:53:49;;;;;;;1.27;0.80;;;;;;;;;;4450532;28;20639;-64
2021/12/14 00:56:04;;;;;;;0.65;0.65;;;;;;;;;;4467870;28;20151;-64
2021/12/14 00:58:15;;;;;;;0.60;0.60;;;;;;;;;;4450372;28;20043;-64
2021/12/14 01:00:32;;;;;;;0.60;0.60;;;;;;;;;;4446926;28;20046;-64
2021/12/14 01:02:42;;;;;;;1.15;0.70;;;;;;;;;;4450175;28;20043;-64
2021/12/14 01:05:00;;;;;;;0.90;0.60;;;;;;;;;;4467531;28;20031;-64
2021/12/14 01:07:14;;;;;;;1.55;0.60;;;;;;;;;;4449764;28;20082;-64
2021/12/14 01:09:29;;;;;;;0.85;0.60;;;;;;;;;;4467149;28;20027;-64
2021/12/14 01:11:47;;;;;;;0.60;0.60;;;;;;;;;;4482503;28;20031;-64
2021/12/14 01:14:05;;;;;;;0.70;0.65;;;;;;;;;;4467931;28;20039;-64
2021/12/14 01:17:09;;;;;;;0.77;0.50;;;;;;;;;;4449984;28;21016;-64
2021/12/14 01:19:01;;;;;;;0.68;0.68;;;;;;;;;;4435986;28;21356;-64
2021/12/14 01:23:40;;;;;;;0.50;0.40;;;;;;;;;;4450285;28;20043;-64
2021/12/14 01:25:52;;;;;;;0.50;0.50;;;;;;;;;;4467396;28;20034;-64
2021/12/14 01:28:02;;;;;;;;;;;;;;;;;;4468117;28;20047;-64
2021/12/14 01:30:20;;;;;;;0.50;0.50;;;;;;;;;;4449986;28;20010;-64
2021/12/14 01:32:34;;;;;;;0.70;0.70;;;;;;;;;;4466053;28;20407;-64
2021/12/14 01:34:45;;;;;;;0.60;0.60;;;;;;;;;;4449994;28;20070;-64
2021/12/14 01:36:58;;;;;;;2.43;0.50;;;;;;;;;;4466836;28;26673;-64
2021/12/14 01:39:44;;;;;;;0.65;0.60;;;;;;;;;;4433322;28;21971;-64
2021/12/14 01:42:03;;;;;;;0.50;0.50;;;;;;;;;;4449298;28;20134;-64
2021/12/14 01:44:15;;;;;;;0.60;0.60;;;;;;;;;;4483320;28;20800;-64
2021/12/14 01:46:36;;;;;;;1.10;0.70;;;;;;;;;;4466555;28;20042;-64
2021/12/14 01:49:09;;;;;;;0.40;0.40;;;;;;;;;;4467051;28;20085;-64
2021/12/14 01:51:38;;;;;;;0.60;0.60;;;;;;;;;;4436753;28;20082;-64
2021/12/14 01:53:58;;;;;;;1.15;0.60;;;;;;;;;;4437799;28;20032;-64
2021/12/14 01:56:11;;;;;;;0.63;0.50;;;;;;;;;;4452449;28;20574;-64
2021/12/14 01:58:24;;;;;;;0.60;0.52;;;;;;;;;;4452491;28;20039;-64
2021/12/14 02:00:44;;;;;;;0.38;0.38;;;;;;;;;;4468063;28;20664;-64
2021/12/14 02:02:55;;;;;;;0.40;0.40;;;;;;;;;;4452659;28;20031;-64
2021/12/14 02:05:11;;;;;;;0.50;0.50;;;;;;;;;;4470344;28;20047;-64
2021/12/14 02:07:23;;;;;;;0.55;0.55;;;;;;;;;;4469173;28;20038;-64
2021/12/14 02:09:36;;;;;;;0.60;0.60;;;;;;;;;;4452870;28;20063;-64
2021/12/14 02:11:53;;;;;;;0.88;0.70;;;;;;;;;;4452852;28;20035;-64
2021/12/14 02:14:05;;;;;;;1.30;0.73;;;;;;;;;;4469254;28;20122;-64
2021/12/14 02:16:18;;;;;;;0.68;0.60;;;;;;;;;;4485018;28;20034;-63
2021/12/14 02:18:31;;;;;;;0.60;0.60;;;;;;;;;;4452756;28;20130;-64
2021/12/14 02:21:06;;;;;;;0.50;0.50;;;;;;;;;;4484480;28;20034;-64
2021/12/14 02:23:17;;;;;;;0.70;0.70;;;;;;;;;;4451525;28;20115;-64
2021/12/14 02:25:27;;;;;;;0.60;0.60;;;;;;;;;;4482728;28;20046;-64
2021/12/14 02:27:41;;;;;;;0.77;0.77;;;;;;;;;;4451984;28;20043;-64
2021/12/14 02:29:52;;;;;;;0.52;0.52;;;;;;;;;;4467675;28;20053;-64
2021/12/14 02:32:18;;;;;;;0.70;0.63;;;;;;;;;;4470426;28;22980;-64
2021/12/14 02:34:29;;;;;;;0.70;0.63;;;;;;;;;;4484705;28;20102;-64
2021/12/14 02:36:46;;;;;;;0.63;0.63;;;;;;;;;;4481968;28;20113;-64
2021/12/14 02:39:07;;;;;;;0.60;0.60;;;;;;;;;;4469265;28;20085;-64
2021/12/14 02:41:20;;;;;;;0.60;0.60;;;;;;;;;;4437632;28;20036;-64
2021/12/14 02:43:42;;;;;;;0.80;0.73;;;;;;;;;;4453267;28;20044;-64
2021/12/14 02:46:05;;;;;;;0.80;0.80;;;;;;;;;;4450216;28;20027;-64
2021/12/14 02:48:15;;;;;;;0.75;0.68;;;;;;;;;;4485077;28;20136;-64
2021/12/14 02:50:26;;;;;;;0.90;0.90;;;;;;;;;;4470082;28;20030;-64
2021/12/14 02:52:37;;;;;;;0.90;0.90;;;;;;;;;;4469579;28;20046;-64
2021/12/14 02:54:53;;;;;;;1.10;0.90;;;;;;;;;;4452859;28;20035;-64
2021/12/14 02:57:15;;;;;;;0.80;0.80;;;;;;;;;;4452854;28;20027;-64
2021/12/14 02:59:30;;;;;;;0.95;0.70;;;;;;;;;;4470093;28;20514;-64
2021/12/14 03:01:42;;;;;;;0.65;0.65;;;;;;;;;;4484541;28;20026;-64
2021/12/14 03:03:59;;;;;;;0.90;0.90;;;;;;;;;;4451552;28;20217;-65
2021/12/14 03:06:15;;;;;;;0.90;0.80;;;;;;;;;;4451491;28;21102;-64
2021/12/14 03:08:28;;;;;;;0.80;0.80;;;;;;;;;;4451229;28;20032;-64
2021/12/14 03:10:56;;;;;;;0.90;0.80;;;;;;;;;;4465055;28;21311;-64
2021/12/14 03:13:09;;;;;;;1.00;0.80;;;;;;;;;;4451963;28;20099;-63
2021/12/14 03:15:45;;;;;;;1.55;0.93;;;;;;;;;;4484777;28;20144;-64
2021/12/14 03:17:59;;;;;;;0.98;0.80;;;;;;;;;;4451961;28;20654;-64
2021/12/14 03:20:16;;;;;;;0.70;0.70;;;;;;;;;;4483941;28;20026;-64
2021/12/14 03:22:45;;;;;;;0.80;0.80;;;;;;;;;;4469175;28;20077;-64
2021/12/14 03:24:56;;;;;;;0.77;0.75;;;;;;;;;;4469703;28;20031;-64
2021/12/14 03:27:07;;;;;;;1.00;0.80;;;;;;;;;;4451413;28;20546;-64
2021/12/14 03:29:22;;;;;;;0.70;0.70;;;;;;;;;;4466905;28;20700;-64
2021/12/14 03:31:37;;;;;;;0.75;0.75;;;;;;;;;;4434617;28;21619;-64
2021/12/14 03:34:24;;;;;;;0.65;0.65;;;;;;;;;;4484177;28;21354;-64
2021/12/14 03:36:48;;;;;;;0.80;0.80;;;;;;;;;;4451097;28;20188;-64
2021/12/14 03:39:26;;;;;;;1.42;1.10;;;;;;;;;;4484159;28;20029;-64
2021/12/14 03:41:42;;;;;;;1.25;0.90;;;;;;;;;;4451642;28;20082;-64
2021/12/14 03:44:04;;;;;;;0.80;0.80;;;;;;;;;;4483430;28;20578;-64
2021/12/14 03:46:19;;;;;;;0.82;0.82;;;;;;;;;;4451124;28;20035;-63
2021/12/14 03:48:33;;;;;;;1.02;1.00;;;;;;;;;;4434929;28;20104;-64
2021/12/14 03:50:43;;;;;;;0.90;0.90;;;;;;;;;;4483854;28;20561;-64
2021/12/14 03:52:54;;;;;;;1.10;1.00;;;;;;;;;;4435421;28;20036;-64
2021/12/14 03:55:13;;;;;;;1.20;1.10;;;;;;;;;;4466723;28;20035;-64
2021/12/14 03:57:24;;;;;;;1.17;1.08;;;;;;;;;;4451496;28;20587;-64
2021/12/14 03:59:37;;;;;;;2.00;0.88;;;;;;;;;;4450716;28;20098;-64
2021/12/14 04:01:50;;;;;;;0.90;0.90;;;;;;;;;;4468872;28;20523;-64
2021/12/14 04:04:15;;;;;;;1.23;1.13;;;;;;;;;;4467170;28;20054;-64
2021/12/14 04:06:27;;;;;;;1.10;1.00;;;;;;;;;;4450676;28;20093;-64
2021/12/14 04:08:38;;;;;;;0.98;0.98;;;;;;;;;;4450817;28;20650;-64
2021/12/14 04:10:51;;;;;;;1.00;1.00;;;;;;;;;;4450773;28;20806;-64
2021/12/14 04:13:01;;;;;;;1.40;1.23;;;;;;;;;;4450841;28;20134;-64
2021/12/14 04:15:12;;;;;;;1.23;1.13;;;;;;;;;;4451032;28;20075;-64
2021/12/14 04:17:28;;;;;;;1.20;1.10;;;;;;;;;;4467917;28;20031;-63
2021/12/14 04:19:40;;;;;;;1.13;0.95;;;;;;;;;;4482696;28;20031;-64
2021/12/14 04:21:52;;;;;;;1.30;1.20;;;;;;;;;;4483077;28;20092;-64
2021/12/14 04:24:03;;;;;;;1.20;1.10;;;;;;;;;;4483233;28;20043;-64
2021/12/14 04:26:16;;;;;;;1.35;1.25;;;;;;;;;;4467274;28;20101;-64
2021/12/14 04:28:31;;;;;;;1.20;1.10;;;;;;;;;;4467387;28;20077;-64
2021/12/14 04:30:42;;;;;;;1.35;1.20;;;;;;;;;;4465999;28;20030;-64
2021/12/14 04:32:59;;;;;;;1.30;1.20;;;;;;;;;;4450730;28;20166;-64
2021/12/14 04:35:10;;;;;;;1.92;1.10;;;;;;;;;;4450386;28;20065;-64
2021/12/14 04:37:21;;;;;;;1.37;1.27;;;;;;;;;;4450807;28;20038;-64
2021/12/14 04:51:57;;;;;;;1.40;1.30;;;;;;;;;;4467642;28;20070;-64
2021/12/14 04:54:09;;;;;;;1.33;1.20;;;;;;;;;;4483224;28;20573;-64
2021/12/14 04:56:41;;;;;;;1.80;1.38;;;;;;;;;;4483248;28;20038;-64
2021/12/14 04:59:02;;;;;;;1.67;1.58;;;;;;;;;;4433987;28;20595;-64
2021/12/14 05:01:14;;;;;;;1.67;1.52;;;;;;;;;;4450181;28;20573;-64
2021/12/14 05:03:40;;;;;;;1.50;1.25;;;;;;;;;;4450603;28;20618;-64
2021/12/14 05:06:08;;;;;;;1.30;1.20;;;;;;;;;;4482739;28;20065;-64
2021/12/14 05:10:35;;;;;;;1.45;1.35;;;;;;;;;;4449318;28;20074;-64
2021/12/14 05:12:46;;;;;;;1.60;1.50;;;;;;;;;;4465344;28;20114;-64
2021/12/14 05:15:07;;;;;;;1.85;1.58;;;;;;;;;;4465742;28;20042;-64
2021/12/14 05:17:24;;;;;;;1.90;1.60;;;;;;;;;;4465803;28;20043;-64
2021/12/14 05:19:38;;;;;;;3.92;2.47;;;;;;;;;;4445511;28;20032;-64
2021/12/14 05:21:50;;;;;;;4.85;3.40;;;;;;;;;;4482263;28;20038;-64
2021/12/14 05:24:06;;;;;;;3.97;2.95;;;;;;;;;;4449458;28;20039;-64
2021/12/14 05:26:23;;;;;;;4.63;3.20;;;;;;;;;;4482014;28;20097;-64
2021/12/14 05:28:34;;;;;;;2.40;1.92;;;;;;;;;;4481948;28;20038;-64
2021/12/14 05:30:53;;;;;;;2.08;1.63;;;;;;;;;;4449818;28;20078;-64
2021/12/14 05:33:17;;;;;;;2.30;2.10;;;;;;;;;;4450590;28;20130;-64
2021/12/14 05:35:30;;;;;;;2.22;1.90;;;;;;;;;;4466135;28;20071;-64
2021/12/14 05:37:53;;;;;;;3.20;2.05;;;;;;;;;;4482016;28;20034;-64
2021/12/14 05:40:16;;;;;;;3.25;2.17;;;;;;;;;;4449156;28;20031;-64
2021/12/14 05:45:06;;;;;;;3.05;2.40;;;;;;;;;;4468443;28;19924;-64
2021/12/14 05:47:18;;;;;;;2.70;2.10;;;;;;;;;;4433040;28;20618;-63
2021/12/14 05:49:43;;;;;;;3.20;2.40;;;;;;;;;;4481619;28;20046;-64
2021/12/14 05:51:56;;;;;;;2.83;2.20;;;;;;;;;;4482328;28;20783;-64
2021/12/14 05:54:06;;;;;;;2.47;2.20;;;;;;;;;;4449726;28;20812;-64
2021/12/14 05:56:21;;;;;;;3.38;2.58;;;;;;;;;;4449573;28;20046;-64
2021/12/14 05:58:32;;;;;;;3.67;2.50;;;;;;;;;;4448086;28;20039;-64
2021/12/14 06:00:49;;;;;;;3.67;2.63;;;;;;;;;;4465185;28;20062;-64
2021/12/14 06:03:01;;;;;;;3.85;3.13;;;;;;;;;;4449319;28;20762;-64
2021/12/14 06:05:19;;;;;;;3.17;2.60;;;;;;;;;;4449412;28;20094;-64
2021/12/14 06:07:30;;;;;;;3.55;2.45;;;;;;;;;;4449132;28;20042;-64
2021/12/14 06:09:45;;;;;;;2.75;2.42;;;;;;;;;;4449107;28;20035;-64
2021/12/14 06:12:10;;;;;;;4.20;3.15;;;;;;;;;;4480922;28;20125;-64
2021/12/14 06:14:23;;;;;;;4.97;3.08;;;;;;;;;;4481578;28;20653;-64
2021/12/14 06:16:37;;;;;;;3.70;2.72;;;;;;;;;;4467972;28;20046;-64
2021/12/14 06:18:48;;;;;;;3.63;2.78;;;;;;;;;;4449346;28;20040;-64
2021/12/14 06:21:12;;;;;;;4.82;3.35;;;;;;;;;;4482041;28;20060;-64
2021/12/14 06:23:25;;;;;;;4.05;2.85;;;;;;;;;;4482251;28;20034;-63
2021/12/14 06:26:02;;;;;;;4.53;3.15;;;;;;;;;;4451029;28;20770;-63
2021/12/14 06:28:24;;;;;;;4.97;3.33;;;;;;;;;;4482100;28;20038;-64
2021/12/14 06:30:35;;;;;;;;;;;;;;;;;;4466521;28;20023;-64
2021/12/14 06:32:59;;;;;;;4.45;2.70;;;;;;;;;;4465950;28;19961;-64
2021/12/14 06:35:23;;;;;;;4.32;3.17;;;;;;;;;;4432035;28;20043;-64
2021/12/14 06:40:19;;;;;;;3.42;2.80;;;;;;;;;;4450305;28;20023;-64
2021/12/14 06:42:32;;;;;;;6.15;2.85;;;;;;;;;;4451915;28;20059;-64
2021/12/14 06:44:42;;;;;;;;;;;;;;;;;;4485091;28;20112;-64
2021/12/14 06:46:53;;;;;;;4.72;3.20;;;;;;;;;;4452565;28;19925;-64
2021/12/14 06:49:11;;;;;;;4.47;2.80;;;;;;;;;;4485319;28;20034;-64
2021/12/14 06:51:31;;;;;;;3.90;2.95;;;;;;;;;;4469205;28;20046;-64
2021/12/14 06:53:52;;;;;;;4.15;3.10;;;;;;;;;;4462828;28;20081;-64
2021/12/14 06:56:13;;;;;;;4.05;3.10;;;;;;;;;;4470447;28;20094;-64
2021/12/14 06:59:11;;;;;;;4.82;3.20;;;;;;;;;;4482350;28;20051;-64
2021/12/14 07:02:05;;;;;;;4.20;3.05;;;;;;;;;;4459178;28;20101;-64
2021/12/14 07:04:20;;;;;;;5.28;3.40;;;;;;;;;;4468292;28;20043;-64
2021/12/14 07:06:35;;;;;;;4.57;3.05;;;;;;;;;;4451512;28;20016;-64
2021/12/14 07:08:46;;;;;;;4.28;3.03;;;;;;;;;;4451542;28;20302;-64
2021/12/14 07:10:56;;;;;;;4.90;3.33;;;;;;;;;;4470811;28;20104;-64
2021/12/14 07:13:13;;;;;;;4.50;3.20;;;;;;;;;;4470645;28;20566;-64
2021/12/14 07:15:26;;;;;;;4.40;3.30;;;;;;;;;;4469402;28;20093;-64
2021/12/14 07:17:43;;;;;;;4.95;3.55;;;;;;;;;;4469882;28;20037;-64
2021/12/14 07:20:11;;;;;;;6.07;3.97;;;;;;;;;;4469994;28;20106;-64
2021/12/14 07:22:27;;;;;;;5.55;3.65;;;;;;;;;;4469817;28;20035;-64
2021/12/14 07:24:37;;;;;;;5.15;3.30;;;;;;;;;;4470286;28;21066;-64
2021/12/14 07:26:49;;;;;;;4.93;3.87;;;;;;;;;;4467949;28;20146;-64
2021/12/14 07:29:00;;;;;;;6.22;3.88;;;;;;;;;;4468362;28;20495;-64
2021/12/14 07:31:28;;;;;;;5.07;3.60;;;;;;;;;;4468975;28;20039;-64
2021/12/14 07:33:44;;;;;;;4.85;3.58;;;;;;;;;;4468916;28;20039;-64
2021/12/14 07:36:04;;;;;;;6.20;4.00;;;;;;;;;;4451153;28;20594;-64
2021/12/14 07:38:14;;;;;;;6.30;3.90;;;;;;;;;;4485564;28;21312;-64
2021/12/14 07:40:34;;;;;;;4.90;3.50;;;;;;;;;;4470131;28;20034;-64
2021/12/14 07:42:45;;;;;;;5.30;3.60;;;;;;;;;;4451474;28;20054;-64
2021/12/14 07:44:56;;;;;;;5.77;3.87;;;;;;;;;;4483864;28;20026;-64
2021/12/14 07:47:10;;;;;;;5.80;3.93;;;;;;;;;;4469175;28;20275;-64
2021/12/14 07:49:28;;;;;;;5.93;4.18;;;;;;;;;;4452183;28;20043;-64
2021/12/14 07:51:40;;;;;;;5.63;4.10;;;;;;;;;;4467295;28;20560;-64
2021/12/14 07:53:55;;;;;;;6.28;4.07;;;;;;;;;;4449627;28;20031;-63
2021/12/14 07:56:07;;;;;;;6.70;4.63;;;;;;;;;;4468112;28;20046;-63
2021/12/14 07:58:29;;;;;;;5.95;4.07;;;;;;;;;;4482664;28;20047;-63
2021/12/14 08:00:42;;;;;;;6.43;4.72;;;;;;;;;;4468555;28;20436;-63
2021/12/14 08:02:55;;;;;;;5.97;4.28;;;;;;;;;;4482834;28;20038;-62
2021/12/14 08:05:16;;;;;;;5.32;4.00;;;;;;;;;;4451825;28;20089;-63
2021/12/14 08:07:28;;;;;;;5.93;4.22;;;;;;;;;;4468802;28;20043;-63
2021/12/14 08:09:47;;;;;;;6.30;4.63;;;;;;;;;;4467657;28;20043;-63
2021/12/14 08:11:58;;;;;;;6.35;4.65;;;;;;;;;;4468443;28;20043;-63
2021/12/14 08:14:12;;;;;;;6.53;4.63;;;;;;;;;;4468031;28;20041;-63
2021/12/14 08:16:23;;;;;;;7.43;5.03;;;;;;;;;;4467574;28;20328;-63
2021/12/14 08:18:36;;;;;;;7.47;5.07;;;;;;;;;;4467231;28;20034;-63
2021/12/14 08:20:51;;;;;;;6.55;4.32;;;;;;;;;;4482766;28;20030;-63
2021/12/14 08:23:26;;;;;;;6.22;4.40;;;;;;;;;;4467310;28;20470;-63
2021/12/14 08:25:40;;;;;;;6.15;4.38;;;;;;;;;;4468952;28;20137;-63
2021/12/14 08:28:06;;;;;;;6.60;4.70;;;;;;;;;;4483668;28;20835;-63
2021/12/14 08:30:17;;;;;;;6.05;4.07;;;;;;;;;;4468415;28;20039;-63
2021/12/14 08:32:33;;;;;;;6.37;4.57;;;;;;;;;;4469234;28;20034;-63
2021/12/14 08:34:47;;;;;;;8.05;5.28;;;;;;;;;;4468890;28;20077;-63
2021/12/14 08:37:07;;;;;;;7.32;4.80;;;;;;;;;;4468208;28;20738;-63
2021/12/14 08:39:49;;;;;;;5.97;3.97;;;;;;;;;;4467289;28;20096;-63
2021/12/14 08:42:14;;;;;;;6.57;4.63;;;;;;;;;;4464975;28;20120;-64
2021/12/14 08:44:38;;;;;;;5.80;4.18;;;;;;;;;;4466051;28;20884;-63
2021/12/14 08:46:51;;;;;;;5.88;4.20;;;;;;;;;;4449694;28;20138;-64
2021/12/14 08:49:05;;;;;;;6.65;4.22;;;;;;;;;;4468005;28;20577;-63
2021/12/14 08:51:21;;;;;;;6.72;4.75;;;;;;;;;;4466946;28;20650;-63
2021/12/14 08:53:35;;;;;;;6.05;4.45;;;;;;;;;;4483328;28;20944;-63
2021/12/14 08:55:49;;;;;;;5.95;4.38;;;;;;;;;;4469008;28;20050;-63
2021/12/14 08:58:00;;;;;;;7.63;5.20;;;;;;;;;;4468153;28;20606;-63
2021/12/14 09:00:16;;;;;;;6.60;4.50;;;;;;;;;;4468000;28;20026;-64
2021/12/14 09:02:31;;;;;;;6.55;4.60;;;;;;;;;;4466170;28;20039;-64
2021/12/14 09:04:56;;;;;;;6.63;4.63;;;;;;;;;;4481779;28;21568;-64
2021/12/14 09:07:13;;;;;;;6.25;4.78;;;;;;;;;;4468449;28;20027;-64
2021/12/14 09:09:23;;;;;;;7.55;5.13;;;;;;;;;;4467564;28;20050;-64
2021/12/14 09:11:37;;;;;;;5.80;4.43;;;;;;;;;;4467408;28;20042;-64
2021/12/14 09:13:48;;;;;;;7.10;4.85;;;;;;;;;;4467707;28;20038;-64
2021/12/14 09:16:05;;;;;;;6.43;4.60;;;;;;;;;;4467718;28;20455;-64
2021/12/14 09:18:18;;;;;;;7.45;5.03;;;;;;;;;;4468219;28;20553;-64
2021/12/14 09:20:38;;;;;;;6.28;4.40;;;;;;;;;;4467236;28;20815;-64
2021/12/14 09:22:53;;;;;;;6.65;4.70;;;;;;;;;;4451137;28;20077;-64
2021/12/14 09:25:05;;;;;;;7.00;4.90;;;;;;;;;;4468286;28;20038;-64
2021/12/14 09:27:20;;;;;;;7.28;4.93;;;;;;;;;;4467108;28;20030;-64
2021/12/14 09:29:32;;;;;;;6.60;4.93;;;;;;;;;;4466076;28;20720;-64
2021/12/14 09:31:47;;;;;;;5.97;4.57;;;;;;;;;;4447795;28;20148;-64
2021/12/14 09:33:59;;;;;;;7.28;5.03;;;;;;;;;;4466177;28;20027;-64
2021/12/14 09:36:12;;;;;;;6.53;4.72;;;;;;;;;;4465580;28;20069;-64
2021/12/14 09:38:32;;;;;;;7.07;5.10;;;;;;;;;;4448448;28;20039;-64
2021/12/14 09:40:53;;;;;;;6.72;5.22;;;;;;;;;;4467511;28;20423;-64
2021/12/14 09:43:04;;;;;;;7.47;5.00;;;;;;;;;;4467319;28;20047;-64
2021/12/14 09:45:18;;;;;;;6.35;4.50;;;;;;;;;;4467445;28;20151;-63
2021/12/14 09:47:31;;;;;;;6.30;4.88;;;;;;;;;;4449585;28;21430;-67
2021/12/14 09:49:43;;;;;;;6.95;5.20;;;;;;;;;;4448809;28;20035;-63
2021/12/14 09:51:58;;;;;;;6.68;4.82;;;;;;;;;;4465495;28;20043;-62
2021/12/14 09:54:13;;;;;;;6.93;4.93;;;;;;;;;;4464519;28;20810;-62
2021/12/14 09:56:26;;;;;;;7.28;5.10;;;;;;;;;;4466345;28;20586;-65
2021/12/14 09:58:41;;;;;;;6.05;4.60;;;;;;;;;;4466232;28;20034;-65
2021/12/14 10:01:06;;;;;;;6.13;4.47;;;;;;;;;;4466372;28;20038;-65
2021/12/14 10:03:16;;;;;;;6.68;4.78;;;;;;;;;;4465828;28;20043;-65
2021/12/14 10:05:40;;;;;;;6.83;5.00;;;;;;;;;;4482361;28;20376;-65
2021/12/14 10:07:50;;;;;;;5.95;4.32;;;;;;;;;;4467905;28;20031;-65
2021/12/14 10:10:04;;;;;;;6.97;4.83;;;;;;;;;;4467738;28;20179;-65
2021/12/14 10:14:38;;;;;;;7.93;5.20;;;;;;;;;;4468179;28;20046;-65
2021/12/14 10:16:49;;;;;;;7.10;4.90;;;;;;;;;;4470967;28;20147;-65
2021/12/14 10:19:06;;;;;;;7.07;4.80;;;;;;;;;;4469560;28;20154;-65
2021/12/14 10:21:17;;;;;;;6.85;5.03;;;;;;;;;;4469504;28;20874;-65
2021/12/14 10:23:28;;;;;;;6.40;5.03;;;;;;;;;;4467646;28;20089;-64
2021/12/14 10:25:39;;;;;;;;;;;;;;;;;;4464666;28;20031;-64
2021/12/14 10:27:50;;;;;;;7.40;5.43;;;;;;;;;;4468661;28;19922;-64
2021/12/14 10:30:10;;;;;;;7.43;5.28;;;;;;;;;;4467491;28;20122;-64
2021/12/14 10:32:28;;;;;;;7.32;5.53;;;;;;;;;;4459754;28;20053;-64
2021/12/14 10:34:45;;;;;;;7.50;5.32;;;;;;;;;;4469740;28;20042;-65
2021/12/14 10:37:07;;;;;;;7.32;5.60;;;;;;;;;;4469464;28;20037;-64
2021/12/14 10:42:40;;;;;;;7.63;6.00;;;;;;;;;;4469138;28;21102;-64
2021/12/14 10:44:31;;;;;;;6.50;4.80;;;;;;;;;;4480414;28;20085;-64
2021/12/14 10:46:46;;;;;;;6.55;4.97;;;;;;;;;;4468682;28;20877;-64
2021/12/14 10:48:56;;;;;;;6.70;5.10;;;;;;;;;;4468553;28;20026;-64
2021/12/14 10:51:10;;;;;;;6.93;4.90;;;;;;;;;;4453746;28;20043;-64
2021/12/14 10:53:21;;;;;;;7.13;5.28;;;;;;;;;;4450357;28;20542;-64
2021/12/14 10:55:39;;;;;;;6.95;5.18;;;;;;;;;;4468212;28;20081;-62
2021/12/14 10:57:51;;;;;;;6.82;4.93;;;;;;;;;;4466780;28;20027;-64
2021/12/14 11:00:05;;;;;;;;;;;;;;;;;;4470628;28;20034;-65
2021/12/14 11:02:15;;;;;;;7.40;5.13;;;;;;;;;;4486332;28;19960;-63
2021/12/14 11:04:38;;;;;;;7.47;5.33;;;;;;;;;;4471028;28;20046;-63
2021/12/14 11:06:52;;;;;;;7.88;5.47;;;;;;;;;;4470382;28;20042;-63
2021/12/14 11:11:29;;;;;;;7.63;5.60;;;;;;;;;;4468224;28;20034;-64
2021/12/14 11:13:47;;;;;;;7.97;5.38;;;;;;;;;;4483847;28;20121;-63
2021/12/14 11:15:59;;;;;;;6.93;5.00;;;;;;;;;;4468251;28;20034;-64
2021/12/14 11:18:19;;;;;;;5.38;4.55;;;;;;;;;;4468054;28;21171;-63
2021/12/14 11:20:42;;;;;;;6.93;4.93;;;;;;;;;;4434271;28;20156;-63
2021/12/14 11:23:10;;;;;;;6.13;4.78;;;;;;;;;;4468659;28;20046;-65
2021/12/14 11:25:23;;;;;;;7.68;5.32;;;;;;;;;;4470159;28;20049;-65
2021/12/14 11:27:38;;;;;;;7.32;5.38;;;;;;;;;;4484097;28;20018;-65
2021/12/14 11:29:55;;;;;;;7.35;5.68;;;;;;;;;;4469731;28;20159;-65
2021/12/14 11:32:07;;;;;;;8.13;5.30;;;;;;;;;;4448862;28;20064;-65
2021/12/14 11:34:30;;;;;;;7.22;5.57;;;;;;;;;;4484734;28;20026;-65
2021/12/14 11:36:55;;;;;;;7.88;5.35;;;;;;;;;;4468560;28;20039;-65
2021/12/14 11:39:23;;;;;;;8.38;6.10;;;;;;;;;;4483008;28;20085;-65
2021/12/14 11:41:33;;;;;;;9.45;6.15;;;;;;;;;;4467609;28;20042;-63
2021/12/14 11:43:49;;;;;;;9.10;6.60;;;;;;;;;;4469399;28;20051;-74
2021/12/14 11:46:06;;;;;;;8.05;5.80;;;;;;;;;;4468145;28;20051;-67
2021/12/14 11:48:27;;;;;;;8.13;5.93;;;;;;;;;;4469631;28;20137;-66
2021/12/14 11:50:42;;;;;;;7.97;6.13;;;;;;;;;;4469396;28;20496;-65
2021/12/14 11:52:56;;;;;;;7.78;5.25;;;;;;;;;;4468978;28;20069;-66
2021/12/14 11:55:44;;;;;;;7.38;5.40;;;;;;;;;;4470104;28;20113;-65
2021/12/14 11:58:06;;;;;;;7.80;6.20;;;;;;;;;;4469035;28;20030;-65
2021/12/14 12:00:21;;;;;;;;;;;;;;;;;;4451834;28;21118;-65
2021/12/14 12:02:31;;;;;;;7.38;5.40;;;;;;;;;;4468062;28;19962;-64
2021/12/14 12:04:46;;;;;;;7.13;5.20;;;;;;;;;;4469643;28;20142;-64
2021/12/14 12:09:28;;;;;;;6.78;5.10;;;;;;;;;;4469343;28;20106;-64
2021/12/14 12:11:42;;;;;;;7.55;5.53;;;;;;;;;;4481035;28;20030;-64
2021/12/14 12:13:52;;;;;;;6.63;4.75;;;;;;;;;;4485126;28;20041;-64
2021/12/14 12:16:24;;;;;;;7.03;4.80;;;;;;;;;;4469940;28;20058;-64
2021/12/14 12:18:34;;;;;;;8.18;5.15;;;;;;;;;;4483886;28;20034;-64
2021/12/14 12:20:48;;;;;;;8.60;5.33;;;;;;;;;;4482597;28;20046;-64
2021/12/14 12:23:00;;;;;;;6.78;5.07;;;;;;;;;;4468140;28;20058;-64
2021/12/14 12:25:34;;;;;;;6.88;5.03;;;;;;;;;;4468624;28;20133;-64
2021/12/14 12:27:48;;;;;;;7.10;5.20;;;;;;;;;;4467609;28;20042;-64
2021/12/14 12:30:28;;;;;;;6.25;4.50;;;;;;;;;;4468464;28;20026;-64
2021/12/14 12:32:38;;;;;;;7.43;5.20;;;;;;;;;;4469206;28;20698;-64
2021/12/14 12:34:50;;;;;;;7.60;5.17;;;;;;;;;;4483466;28;20169;-64
2021/12/14 12:37:01;;;;;;;6.93;4.90;;;;;;;;;;4469314;28;20034;-64
2021/12/14 12:39:16;;;;;;;7.17;4.60;;;;;;;;;;4483704;28;20038;-64
2021/12/14 12:41:43;;;;;;;6.22;4.70;;;;;;;;;;4468607;28;20124;-64
2021/12/14 12:44:24;;;;;;;7.22;4.88;;;;;;;;;;4449776;28;20047;-64
2021/12/14 12:46:40;;;;;;;6.72;5.05;;;;;;;;;;4468558;28;20861;-64
2021/12/14 12:49:00;;;;;;;6.72;4.95;;;;;;;;;;4467279;28;20038;-64
2021/12/14 12:51:11;;;;;;;7.43;5.03;;;;;;;;;;4467739;28;20038;-64
2021/12/14 12:53:22;;;;;;;;;;;;;;;;;;4451173;28;20114;-64
2021/12/14 12:55:35;;;;;;;6.90;4.85;;;;;;;;;;4451303;28;19993;-64
2021/12/14 12:58:09;;;;;;;6.15;4.47;;;;;;;;;;4482296;28;21347;-64
2021/12/14 13:00:28;;;;;;;6.80;4.70;;;;;;;;;;4466987;28;20039;-64
2021/12/14 13:02:50;;;;;;;7.53;4.88;;;;;;;;;;4467694;28;20038;-64
2021/12/14 13:05:09;;;;;;;6.95;5.00;;;;;;;;;;4469925;28;20770;-64
2021/12/14 13:07:28;;;;;;;6.57;4.55;;;;;;;;;;4451599;28;20628;-64
2021/12/14 13:10:07;;;;;;;6.43;4.88;;;;;;;;;;4469508;28;20043;-64
2021/12/14 13:12:40;;;;;;;6.88;4.85;;;;;;;;;;4466100;28;20113;-64
2021/12/14 13:14:51;;;;;;;6.45;5.03;;;;;;;;;;4467974;28;20563;-64
2021/12/14 13:17:04;;;;;;;6.23;4.63;;;;;;;;;;4467777;28;20042;-64
2021/12/14 13:19:17;;;;;;;7.00;4.75;;;;;;;;;;4467105;28;20046;-64
2021/12/14 13:21:34;;;;;;;7.38;5.15;;;;;;;;;;4482190;28;20073;-64
2021/12/14 13:23:56;;;;;;;6.43;4.78;;;;;;;;;;4467148;28;20650;-64
2021/12/14 13:26:36;;;;;;;6.72;4.78;;;;;;;;;;4483464;28;20027;-64
2021/12/14 13:28:47;;;;;;;7.13;4.88;;;;;;;;;;4484697;28;21298;-64
2021/12/14 13:30:57;;;;;;;7.00;4.97;;;;;;;;;;4468035;28;20039;-64
2021/12/14 13:33:28;;;;;;;7.43;5.13;;;;;;;;;;4483676;28;20639;-64
2021/12/14 13:35:38;;;;;;;6.90;4.90;;;;;;;;;;4468521;28;20046;-63
2021/12/14 13:38:04;;;;;;;6.97;5.03;;;;;;;;;;4466469;28;25428;-64
2021/12/14 13:40:25;;;;;;;6.07;4.88;;;;;;;;;;4466152;28;20035;-64
2021/12/14 13:42:42;;;;;;;6.47;4.73;;;;;;;;;;4466088;28;20178;-64
2021/12/14 13:44:53;;;;;;;6.43;4.60;;;;;;;;;;4481357;28;20046;-63
2021/12/14 13:47:07;;;;;;;6.75;5.22;;;;;;;;;;4466049;28;20033;-64
2021/12/14 13:49:18;;;;;;;8.35;5.65;;;;;;;;;;4466450;28;20195;-64
2021/12/14 13:51:30;;;;;;;7.30;5.33;;;;;;;;;;4469235;28;20038;-64
2021/12/14 13:53:42;;;;;;;6.95;4.78;;;;;;;;;;4470587;28;20594;-64
2021/12/14 13:55:57;;;;;;;6.65;4.95;;;;;;;;;;4486093;28;20113;-64
2021/12/14 13:58:10;;;;;;;6.15;4.82;;;;;;;;;;4471513;28;20049;-65
2021/12/14 14:00:35;;;;;;;6.57;4.63;;;;;;;;;;4485761;28;20074;-65
2021/12/14 14:02:46;;;;;;;7.15;5.18;;;;;;;;;;4470299;28;20094;-64
2021/12/14 14:04:56;;;;;;;7.88;5.57;;;;;;;;;;4470184;28;20046;-65
2021/12/14 14:07:07;;;;;;;6.50;4.70;;;;;;;;;;4469262;28;20122;-65
2021/12/14 14:09:23;;;;;;;6.70;4.97;;;;;;;;;;4452221;28;20492;-65
2021/12/14 14:11:40;;;;;;;6.97;5.15;;;;;;;;;;4484416;28;20041;-64
2021/12/14 14:13:54;;;;;;;6.40;4.85;;;;;;;;;;4469282;28;20050;-64
2021/12/14 14:16:05;;;;;;;7.03;5.18;;;;;;;;;;4468755;28;20034;-63
2021/12/14 14:18:15;;;;;;;6.82;4.80;;;;;;;;;;4467445;28;20523;-63